| Date | Time | Temp. (oF) | Dew Point (oF) | Rel. Hum. (%) | Press. (in.) | Wind Dir. | Wind Speed (mph) | Hourly Rainfall (in.) |
|
|---|---|---|---|---|---|---|---|---|---|
| 1 | 09/15 | 00:00 | 73 | 72 | 100 | 30.00 | E | 4 | 0.00 |
| 2 | 09/14 | 23:00 | 73 | 72 | 100 | 30.01 | E | 3 | 0.00 |
| 3 | 09/14 | 22:00 | 74 | 73 | 100 | 30.00 | NNE | 3 | 0.00 |
| 4 | 09/14 | 21:00 | 74 | 73 | 100 | 29.99 | E | 1 | 0.00 |
| 5 | 09/14 | 20:00 | 75 | 75 | 100 | 29.96 | SE | 1 | 0.00 |
| 6 | 09/14 | 19:00 | 76 | 76 | 100 | 29.95 | NE | 3 | 0.00 |
| 7 | 09/14 | 18:00 | 76 | 76 | 100 | 29.95 | E | 3 | 0.00 |
| 8 | 09/14 | 17:00 | 75 | 75 | 100 | 29.94 | E | 2 | 0.07 |
| 9 | 09/14 | 16:00 | 75 | 74 | 97 | 29.97 | S | 4 | 0.10 |
| 10 | 09/14 | 15:00 | 83 | 73 | 73 | 29.96 | E | 8 | 0.00 |
| 11 | 09/14 | 14:00 | 85 | 73 | 69 | 29.96 | E | 4 | 0.00 |
| 12 | 09/14 | 13:00 | 83 | 73 | 73 | 29.98 | SE | 3 | 0.00 |
| 13 | 09/14 | 12:00 | 83 | 74 | 76 | 30.01 | E | 3 | 0.00 |
| 14 | 09/14 | 11:00 | 79 | 73 | 82 | 30.04 | SSE | 4 | 0.00 |
| 15 | 09/14 | 10:00 | 76 | 72 | 89 | 30.05 | S | 3 | 0.00 |
| 16 | 09/14 | 09:00 | 71 | 66 | 87 | 30.05 | ESE | 1 | 0.00 |
| 17 | 09/14 | 08:00 | 68 | 63 | 86 | 30.04 | NE | 1 | 0.00 |
| 18 | 09/14 | 07:00 | 68 | 63 | 85 | 30.02 | NE | 1 | 0.00 |
| 19 | 09/14 | 06:00 | 67 | 62 | 85 | 30.02 | ENE | 0 | 0.00 |
| 20 | 09/14 | 05:00 | 66 | 62 | 88 | 30.02 | NNE | 0 | 0.00 |
| 21 | 09/14 | 04:00 | 64 | 60 | 89 | 30.03 | NNE | 0 | 0.00 |
| 22 | 09/14 | 03:00 | 62 | 57 | 85 | 30.03 | NNW | 0 | 0.00 |
| 23 | 09/14 | 02:00 | 63 | 57 | 81 | 30.02 | NNW | 0 | 0.00 |
| 24 | 09/14 | 01:00 | 64 | 56 | 78 | 30.01 | S | 0 | 0.00 |